createdAt,value
2023-03-12T00:01:20.589Z,99801.06
2023-03-12T00:03:48.687Z,99804.38
2023-03-12T00:06:16.469Z,99805.78
2023-03-12T00:08:43.159Z,99809.22
2023-03-12T00:11:13.448Z,99819.81
2023-03-12T00:13:40.430Z,99804.00
2023-03-12T00:16:13.037Z,99809.47
2023-03-12T00:18:40.328Z,99819.41
2023-03-12T00:21:08.181Z,99815.28
2023-03-12T00:23:35.816Z,99832.88
2023-03-12T00:26:13.440Z,99834.97
2023-03-12T00:28:41.179Z,99834.22
2023-03-12T00:31:18.202Z,99846.78
2023-03-12T00:33:45.182Z,99846.97
2023-03-12T00:36:12.717Z,99852.38
2023-03-12T00:38:39.397Z,99867.31
2023-03-12T00:41:05.969Z,99859.28
2023-03-12T00:43:32.521Z,99866.50
2023-03-12T00:45:59.129Z,99871.78
2023-03-12T00:48:25.907Z,99877.09
2023-03-12T00:50:52.636Z,99872.47
2023-03-12T00:53:19.228Z,99874.16
2023-03-12T00:55:45.825Z,99877.84
2023-03-12T00:58:12.408Z,99882.41
2023-03-12T01:00:38.999Z,99880.00
2023-03-12T01:03:05.748Z,99881.06
2023-03-12T01:05:37.556Z,99879.59
2023-03-12T01:08:05.402Z,99878.84
2023-03-12T01:10:31.986Z,99875.53
2023-03-12T01:12:58.689Z,99881.59
2023-03-12T01:15:25.745Z,99880.91
2023-03-12T01:17:52.595Z,99878.44
2023-03-12T01:20:19.338Z,99876.91
2023-03-12T01:22:45.960Z,99881.28
2023-03-12T01:25:12.635Z,99877.09
2023-03-12T01:27:39.253Z,99882.91
2023-03-12T01:30:06.604Z,99878.63
2023-03-12T01:32:33.328Z,99879.56
2023-03-12T01:35:00.420Z,99884.28
2023-03-12T01:37:27.704Z,99883.41
2023-03-12T01:39:54.524Z,99891.81
2023-03-12T01:42:21.409Z,99894.56
2023-03-12T01:44:50.393Z,99894.72
2023-03-12T01:47:16.977Z,99899.34
2023-03-12T01:49:43.915Z,99900.63
2023-03-12T01:52:37.788Z,99906.38
2023-03-12T01:55:13.547Z,99906.53
2023-03-12T01:57:48.562Z,99913.28
2023-03-12T02:00:20.077Z,99913.63
2023-03-12T02:02:47.523Z,99922.59
2023-03-12T02:05:48.423Z,99924.38
2023-03-12T02:08:17.168Z,99923.50
2023-03-12T02:10:44.322Z,99936.72
2023-03-12T02:13:12.120Z,99942.63
2023-03-12T02:15:39.459Z,99947.28
2023-03-12T02:18:08.536Z,99945.34
2023-03-12T02:20:58.945Z,99933.19
2023-03-12T02:23:45.626Z,99941.94
2023-03-12T02:26:13.580Z,99953.03
2023-03-12T02:28:45.787Z,99947.97
2023-03-12T02:31:16.431Z,99939.28
2023-03-12T02:33:43.057Z,99940.38
2023-03-12T02:40:15.432Z,99957.13
2023-03-12T02:42:41.951Z,99959.84
2023-03-12T02:45:08.840Z,99967.72
2023-03-12T02:47:35.369Z,99976.56
2023-03-12T02:50:01.964Z,99986.69
2023-03-12T02:52:30.556Z,99984.50
2023-03-12T02:54:57.122Z,99981.50
2023-03-12T02:57:23.687Z,99987.16
2023-03-12T02:59:50.234Z,99992.88
2023-03-12T03:02:16.828Z,99995.72
2023-03-12T03:04:43.433Z,99999.63
2023-03-12T03:07:10.064Z,100006.97
2023-03-12T03:09:36.741Z,100007.09
2023-03-12T03:12:03.528Z,100021.31
2023-03-12T03:14:30.175Z,100015.00
2023-03-12T03:16:56.788Z,100014.09
2023-03-12T03:19:23.538Z,100022.94
2023-03-12T03:21:50.148Z,100028.44
2023-03-12T03:24:16.917Z,100042.19
2023-03-12T03:26:44.169Z,100040.84
2023-03-12T03:29:10.740Z,100044.56
2023-03-12T03:31:39.701Z,100041.25
2023-03-12T03:34:06.455Z,100051.94
2023-03-12T03:36:33.089Z,100055.06
2023-03-12T03:38:59.765Z,100055.28
2023-03-12T03:41:27.948Z,100061.78
2023-03-12T03:43:58.540Z,100058.97
2023-03-12T03:46:26.185Z,100062.63
2023-03-12T03:48:53.011Z,100062.00
2023-03-12T03:51:20.076Z,100067.00
2023-03-12T03:53:46.722Z,100065.13
2023-03-12T03:56:15.884Z,100069.66
2023-03-12T03:58:43.198Z,100060.84
2023-03-12T04:01:12.213Z,100059.44
2023-03-12T04:03:39.003Z,100067.91
2023-03-12T04:06:07.343Z,100079.59
2023-03-12T04:08:35.570Z,100074.44
2023-03-12T04:11:17.691Z,100078.56
2023-03-12T04:13:45.230Z,100086.13
2023-03-12T04:16:12.092Z,100063.84
2023-03-12T04:18:40.127Z,100086.84
2023-03-12T04:21:08.362Z,100094.13
2023-03-12T04:23:36.116Z,100096.50
2023-03-12T04:26:04.428Z,100103.91
2023-03-12T04:28:31.064Z,100107.63
2023-03-12T04:30:59.877Z,100108.75
2023-03-12T04:33:28.393Z,100133.66
2023-03-12T04:35:55.103Z,100126.78
2023-03-12T04:38:23.218Z,100134.13
2023-03-12T04:41:07.463Z,100143.38
2023-03-12T04:43:34.960Z,100151.56
2023-03-12T04:46:02.586Z,100154.28
2023-03-12T04:48:29.300Z,100158.75
2023-03-12T04:50:55.897Z,100157.97
2023-03-12T04:53:23.581Z,100154.78
2023-03-12T04:55:51.135Z,100157.22
2023-03-12T04:58:18.748Z,100154.63
2023-03-12T05:00:45.796Z,100157.28
2023-03-12T05:03:12.589Z,100160.91
2023-03-12T05:05:39.325Z,100163.41
2023-03-12T05:08:06.205Z,100165.31
2023-03-12T05:10:33.422Z,100162.56
2023-03-12T05:13:00.129Z,100159.78
2023-03-12T05:15:26.780Z,100165.78
2023-03-12T05:17:54.778Z,100152.28
2023-03-12T05:20:21.518Z,100164.22
2023-03-12T05:22:48.105Z,100155.88
2023-03-12T05:25:14.763Z,100171.75
2023-03-12T05:27:41.350Z,100170.31
2023-03-12T05:30:09.796Z,100177.41
2023-03-12T05:32:36.490Z,100182.53
2023-03-12T05:35:03.485Z,100193.66
2023-03-12T05:37:31.017Z,100190.63
2023-03-12T05:39:57.659Z,100189.47
2023-03-12T05:42:25.013Z,100182.09
2023-03-12T05:44:52.387Z,100185.53
2023-03-12T05:47:19.450Z,100194.03
2023-03-12T05:49:46.120Z,100190.31
2023-03-12T05:52:12.670Z,100204.19
2023-03-12T05:54:39.393Z,100201.38
2023-03-12T05:57:06.088Z,100212.63
2023-03-12T05:59:32.849Z,100215.84
2023-03-12T06:01:59.471Z,100223.56
2023-03-12T06:04:26.071Z,100225.31
2023-03-12T06:06:52.737Z,100228.47
2023-03-12T06:09:19.283Z,100235.19
2023-03-12T06:11:45.865Z,100235.59
2023-03-12T06:14:13.047Z,100242.09
2023-03-12T06:16:39.756Z,100255.69
2023-03-12T06:19:07.694Z,100263.97
2023-03-12T06:21:35.923Z,100257.41
2023-03-12T06:24:03.103Z,100263.97
2023-03-12T06:26:29.934Z,100272.78
2023-03-12T06:28:56.601Z,100273.84
2023-03-12T06:31:24.198Z,100275.03
2023-03-12T06:33:51.154Z,100274.72
2023-03-12T06:36:18.113Z,100286.63
2023-03-12T06:38:45.249Z,100288.53
2023-03-12T06:41:14.603Z,100291.88
2023-03-12T06:43:42.866Z,100294.72
2023-03-12T06:46:13.515Z,100289.19
2023-03-12T06:48:41.302Z,100292.78
2023-03-12T06:51:12.780Z,100295.28
2023-03-12T06:53:42.128Z,100296.13
2023-03-12T06:56:09.118Z,100312.91
2023-03-12T06:58:35.800Z,100302.91
2023-03-12T07:01:02.411Z,100310.94
2023-03-12T07:03:29.025Z,100316.00
2023-03-12T07:05:56.905Z,100314.91
2023-03-12T07:08:23.506Z,100322.25
2023-03-12T07:10:50.085Z,100320.47
2023-03-12T07:13:16.692Z,100332.03
2023-03-12T07:15:45.111Z,100335.66
2023-03-12T07:18:12.163Z,100329.66
2023-03-12T07:20:43.910Z,100333.16
2023-03-12T07:23:11.262Z,100335.53
2023-03-12T07:25:40.464Z,100339.59
2023-03-12T07:28:08.788Z,100341.28
2023-03-12T07:30:36.008Z,100342.66
2023-03-12T07:33:08.080Z,100349.16
2023-03-12T07:35:35.525Z,100348.63
2023-03-12T07:38:02.498Z,100350.50
2023-03-12T07:40:29.510Z,100356.41
2023-03-12T07:42:56.326Z,100348.44
2023-03-12T07:45:23.997Z,100359.50
2023-03-12T07:47:50.757Z,100350.56
2023-03-12T07:50:18.648Z,100349.84
2023-03-12T07:52:46.753Z,100360.72
2023-03-12T07:55:13.949Z,100355.59
2023-03-12T07:57:40.737Z,100351.78
2023-03-12T08:00:10.338Z,100360.19
2023-03-12T08:02:37.285Z,100359.53
2023-03-12T08:05:04.366Z,100353.44
2023-03-12T08:07:32.584Z,100359.75
2023-03-12T08:10:04.857Z,100359.75
2023-03-12T08:12:32.071Z,100358.88
2023-03-12T08:14:58.890Z,100363.53
2023-03-12T08:17:25.460Z,100354.09
2023-03-12T08:19:52.045Z,100359.81
2023-03-12T08:22:18.640Z,100361.75
2023-03-12T08:24:45.224Z,100360.13
2023-03-12T08:27:14.923Z,100360.25
2023-03-12T08:29:41.924Z,100354.53
2023-03-12T08:32:10.863Z,100371.75
2023-03-12T08:34:37.667Z,100368.47
2023-03-12T08:37:04.353Z,100356.53
2023-03-12T08:39:31.031Z,100365.41
2023-03-12T08:41:58.669Z,100367.34
2023-03-12T08:44:26.218Z,100364.81
2023-03-12T08:46:54.794Z,100366.44
2023-03-12T08:49:22.120Z,100365.50
2023-03-12T08:51:49.173Z,100367.41
2023-03-12T08:54:15.715Z,100368.38
2023-03-12T08:56:43.593Z,100372.25
2023-03-12T08:59:11.757Z,100369.78
2023-03-12T09:01:40.605Z,100366.13
2023-03-12T09:04:08.307Z,100367.03
2023-03-12T09:06:35.512Z,100359.19
2023-03-12T09:09:05.794Z,100355.84
2023-03-12T09:11:34.126Z,100358.69
2023-03-12T09:16:47.986Z,100359.72
2023-03-12T09:19:14.912Z,100360.47
2023-03-12T09:21:41.922Z,100353.81
2023-03-12T09:24:09.921Z,100358.94
2023-03-12T09:26:36.531Z,100362.28
2023-03-12T09:29:03.215Z,100358.66
2023-03-12T09:31:29.798Z,100352.75
2023-03-12T09:33:56.386Z,100350.47
2023-03-12T09:36:22.971Z,100353.38
2023-03-12T09:38:49.592Z,100354.78
2023-03-12T09:41:20.615Z,100360.88
2023-03-12T09:44:02.390Z,100357.13
2023-03-12T09:46:38.007Z,100353.38
2023-03-12T09:49:11.931Z,100350.91
2023-03-12T09:51:44.464Z,100354.78
2023-03-12T09:54:29.782Z,100356.13
2023-03-12T09:57:00.615Z,100344.91
2023-03-12T09:59:27.468Z,100341.06
2023-03-12T10:02:00.199Z,100344.94
2023-03-12T10:04:58.226Z,100340.53
2023-03-12T10:07:36.050Z,100342.00
2023-03-12T10:10:20.761Z,100347.78
2023-03-12T10:12:54.528Z,100335.56
2023-03-12T10:15:54.860Z,100341.09
2023-03-12T10:18:42.876Z,100343.88
2023-03-12T10:21:29.487Z,100343.66
2023-03-12T10:24:08.450Z,100346.25
2023-03-12T10:26:38.096Z,100348.41
2023-03-12T10:29:17.347Z,100348.38
2023-03-12T10:32:04.584Z,100353.47
2023-03-12T10:34:51.526Z,100351.34
2023-03-12T10:37:23.640Z,100349.41
2023-03-12T10:39:51.423Z,100357.06
2023-03-12T10:42:21.413Z,100358.75
2023-03-12T10:44:55.048Z,100362.00
2023-03-12T10:47:33.968Z,100362.50
2023-03-12T10:50:22.253Z,100367.81
2023-03-12T10:52:52.053Z,100360.69
2023-03-12T10:55:21.384Z,100361.88
2023-03-12T10:57:48.808Z,100357.19
2023-03-12T11:00:34.053Z,100357.06
2023-03-12T11:03:06.696Z,100358.03
2023-03-12T11:05:48.885Z,100368.22
2023-03-12T11:08:33.591Z,100365.59
2023-03-12T11:11:01.693Z,100344.03
2023-03-12T11:13:37.991Z,100349.50
2023-03-12T11:16:16.825Z,100341.28
2023-03-12T11:19:04.461Z,100344.06
2023-03-12T11:21:33.531Z,100355.06
2023-03-12T11:24:10.882Z,100344.50
2023-03-12T11:27:01.910Z,100342.56
2023-03-12T11:29:40.383Z,100344.34
2023-03-12T11:32:17.951Z,100333.91
2023-03-12T11:34:49.754Z,100336.59
2023-03-12T11:37:40.277Z,100329.41
2023-03-12T11:40:18.885Z,100331.78
2023-03-12T11:42:56.331Z,100328.84
2023-03-12T11:45:28.900Z,100326.94
2023-03-12T11:48:02.094Z,100327.91
2023-03-12T11:50:56.804Z,100324.66
2023-03-12T11:53:30.190Z,100324.44
2023-03-12T11:56:23.993Z,100318.97
2023-03-12T11:59:05.399Z,100323.41
2023-03-12T12:02:09.776Z,100314.16
2023-03-12T12:04:53.092Z,100313.69
2023-03-12T12:07:19.673Z,100309.41
2023-03-12T12:09:48.971Z,100317.41
2023-03-12T12:12:27.506Z,100306.84
2023-03-12T12:15:20.769Z,100305.25
2023-03-12T12:17:59.261Z,100301.44
2023-03-12T12:20:51.703Z,100302.28
2023-03-12T12:23:38.005Z,100307.31
2023-03-12T12:26:09.044Z,100298.09
2023-03-12T12:28:38.687Z,100306.31
2023-03-12T12:31:38.601Z,100297.88
2023-03-12T12:34:21.399Z,100298.41
2023-03-12T12:36:57.217Z,100295.06
2023-03-12T12:39:32.541Z,100296.16
2023-03-12T12:42:04.706Z,100298.63
2023-03-12T12:44:38.928Z,100292.66
2023-03-12T12:47:13.191Z,100296.41
2023-03-12T12:49:54.258Z,100296.13
2023-03-12T12:52:22.549Z,100297.22
2023-03-12T12:55:34.748Z,100296.31
2023-03-12T12:58:19.401Z,100300.91
2023-03-12T13:00:50.012Z,100296.28
2023-03-12T13:03:22.608Z,100313.81
2023-03-12T13:06:07.589Z,100300.38
2023-03-12T13:09:01.140Z,100304.50
2023-03-12T13:11:38.557Z,100317.06
2023-03-12T13:14:05.051Z,100303.25
2023-03-12T13:16:37.175Z,100303.44
2023-03-12T13:19:24.073Z,100305.09
2023-03-12T13:22:18.304Z,100310.31
2023-03-12T13:24:57.460Z,100307.56
2023-03-12T13:27:28.981Z,100322.91
2023-03-12T13:29:57.266Z,100315.78
2023-03-12T13:32:36.134Z,100322.94
2023-03-12T13:35:14.640Z,100320.56
2023-03-12T13:37:47.189Z,100321.78
2023-03-12T13:40:28.692Z,100322.75
2023-03-12T13:43:39.742Z,100332.53
2023-03-12T13:46:16.742Z,100335.38
2023-03-12T13:48:48.437Z,100333.88
2023-03-12T13:51:23.140Z,100319.72
2023-03-12T13:53:55.454Z,100324.69
2023-03-12T13:56:28.328Z,100314.63
2023-03-12T13:58:57.642Z,100323.88
2023-03-12T14:01:30.073Z,100323.41
2023-03-12T14:04:01.066Z,100324.72
2023-03-12T14:06:31.766Z,100316.66
2023-03-12T14:09:28.342Z,100325.31
2023-03-12T14:12:24.001Z,100339.44
2023-03-12T14:15:18.683Z,100327.72
2023-03-12T14:17:45.618Z,100331.69
2023-03-12T14:20:18.296Z,100335.56
2023-03-12T14:23:07.848Z,100330.09
2023-03-12T14:25:39.221Z,100331.38
2023-03-12T14:28:14.250Z,100333.25
2023-03-12T14:31:12.806Z,100335.41
2023-03-12T14:33:52.626Z,100332.22
2023-03-12T14:36:22.876Z,100336.16
2023-03-12T14:38:49.673Z,100331.94
2023-03-12T14:41:19.624Z,100325.69
2023-03-12T14:43:46.571Z,100330.31
2023-03-12T14:46:19.200Z,100332.88
2023-03-12T14:48:49.324Z,100338.47
2023-03-12T14:51:25.033Z,100348.16
2023-03-12T14:53:53.200Z,100338.19
2023-03-12T14:56:30.441Z,100339.78
2023-03-12T14:58:59.047Z,100339.81
2023-03-12T15:01:31.897Z,100342.66
2023-03-12T15:04:01.607Z,100340.13
2023-03-12T15:06:31.670Z,100337.13
2023-03-12T15:09:03.874Z,100345.44
2023-03-12T15:11:33.278Z,100351.03
2023-03-12T15:14:09.440Z,100349.00
2023-03-12T15:16:36.901Z,100358.78
2023-03-12T15:19:04.517Z,100358.25
2023-03-12T15:21:37.416Z,100361.66
2023-03-12T15:24:05.691Z,100364.75
2023-03-12T15:26:36.458Z,100370.09
2023-03-12T15:29:05.522Z,100371.91
2023-03-12T15:31:48.021Z,100379.41
2023-03-12T15:34:34.166Z,100385.69
2023-03-12T15:37:02.918Z,100378.97
2023-03-12T15:39:35.328Z,100379.16
2023-03-12T15:42:15.601Z,100377.09
2023-03-12T15:44:52.070Z,100376.75
2023-03-12T15:47:21.860Z,100380.81
2023-03-12T15:49:56.310Z,100385.63
2023-03-12T15:52:22.885Z,100394.19
2023-03-12T15:55:22.371Z,100391.72
2023-03-12T15:57:50.543Z,100394.13
2023-03-12T16:00:43.976Z,100396.06
2023-03-12T16:03:18.878Z,100397.28
2023-03-12T16:05:45.684Z,100399.31
2023-03-12T16:08:22.724Z,100402.03
2023-03-12T16:10:50.387Z,100413.88
2023-03-12T16:13:23.390Z,100415.81
2023-03-12T16:15:50.082Z,100406.69
2023-03-12T16:18:21.783Z,100409.28
2023-03-12T16:20:50.478Z,100417.03
2023-03-12T16:23:18.941Z,100410.84
2023-03-12T16:25:48.525Z,100413.78
2023-03-12T16:28:17.712Z,100411.16
2023-03-12T16:30:44.608Z,100417.66
2023-03-12T16:33:16.722Z,100425.78
2023-03-12T16:35:43.981Z,100425.13
2023-03-12T16:38:10.698Z,100428.78
2023-03-12T16:40:40.605Z,100431.28
2023-03-12T16:43:15.648Z,100427.72
2023-03-12T16:45:44.749Z,100436.28
2023-03-12T16:48:15.447Z,100436.75
2023-03-12T16:50:47.907Z,100445.50
2023-03-12T16:53:14.688Z,100447.66
2023-03-12T16:55:50.740Z,100450.59
2023-03-12T16:58:19.954Z,100444.31
2023-03-12T17:00:47.600Z,100453.19
2023-03-12T17:03:26.369Z,100465.25
2023-03-12T17:05:54.154Z,100466.63
2023-03-12T17:08:20.838Z,100470.56
2023-03-12T17:10:47.472Z,100475.91
2023-03-12T17:13:23.027Z,100482.41
2023-03-12T17:15:50.524Z,100484.44
2023-03-12T17:18:18.183Z,100485.06
2023-03-12T17:20:46.307Z,100484.00
2023-03-12T17:23:13.311Z,100484.78
2023-03-12T17:25:42.361Z,100480.09
2023-03-12T17:28:09.182Z,100479.78
2023-03-12T17:30:36.723Z,100470.59
2023-03-12T17:33:06.631Z,100481.28
2023-03-12T17:35:33.750Z,100480.91
2023-03-12T17:38:00.697Z,100477.78
2023-03-12T17:40:27.581Z,100493.25
2023-03-12T17:42:54.277Z,100486.13
2023-03-12T17:45:21.732Z,100491.88
2023-03-12T17:47:48.455Z,100490.22
2023-03-12T17:50:15.381Z,100489.66
2023-03-12T17:52:42.023Z,100481.41
2023-03-12T17:55:11.354Z,100477.28
2023-03-12T17:57:38.548Z,100482.28
2023-03-12T18:00:11.579Z,100480.13
2023-03-12T18:02:42.038Z,100483.94
2023-03-12T18:05:10.559Z,100486.81
2023-03-12T18:07:37.841Z,100477.56
2023-03-12T18:10:08.717Z,100484.00
2023-03-12T18:12:37.999Z,100490.28
2023-03-12T18:15:05.953Z,100491.53
2023-03-12T18:17:32.566Z,100490.72
2023-03-12T18:19:59.234Z,100489.91
2023-03-12T18:22:25.807Z,100501.63
2023-03-12T18:24:52.392Z,100502.22
2023-03-12T18:27:18.929Z,100503.97
2023-03-12T18:29:45.628Z,100509.03
2023-03-12T18:32:12.201Z,100510.38
2023-03-12T18:34:42.140Z,100514.59
2023-03-12T18:37:08.722Z,100524.47
2023-03-12T18:39:35.349Z,100524.28
2023-03-12T18:42:01.934Z,100515.69
2023-03-12T18:44:28.631Z,100524.47
2023-03-12T18:46:55.254Z,100527.78
2023-03-12T18:49:21.921Z,100527.59
2023-03-12T18:51:53.341Z,100532.50
2023-03-12T18:54:19.928Z,100525.34
2023-03-12T18:56:46.761Z,100529.34
2023-03-12T18:59:14.862Z,100533.06
2023-03-12T19:01:44.603Z,100529.34
2023-03-12T19:04:16.367Z,100527.38
2023-03-12T19:06:50.694Z,100528.16
2023-03-12T19:09:18.569Z,100529.16
2023-03-12T19:11:49.400Z,100525.66
2023-03-12T19:14:16.232Z,100523.72
2023-03-12T19:16:43.097Z,100525.34
2023-03-12T19:19:09.700Z,100522.38
2023-03-12T19:21:36.276Z,100517.06
2023-03-12T19:24:02.815Z,100517.13
2023-03-12T19:26:29.508Z,100515.56
2023-03-12T19:28:56.128Z,100526.44
2023-03-12T19:31:22.875Z,100537.09
2023-03-12T19:33:49.462Z,100540.63
2023-03-12T19:36:16.165Z,100546.53
2023-03-12T19:38:42.764Z,100554.94
2023-03-12T19:41:11.161Z,100554.56
2023-03-12T19:43:38.100Z,100559.25
2023-03-12T19:46:05.064Z,100567.28
2023-03-12T19:48:32.051Z,100579.31
2023-03-12T19:51:05.399Z,100577.25
2023-03-12T19:53:32.165Z,100578.25
2023-03-12T19:55:58.764Z,100578.59
2023-03-12T19:58:25.374Z,100575.44
2023-03-12T20:00:51.973Z,100572.63
2023-03-12T20:03:20.698Z,100571.56
2023-03-12T20:05:47.506Z,100572.34
2023-03-12T20:08:14.168Z,100581.06
2023-03-12T20:10:40.825Z,100573.22
2023-03-12T20:13:12.750Z,100567.84
2023-03-12T20:15:40.345Z,100569.63
2023-03-12T20:18:06.955Z,100572.16
2023-03-12T20:20:33.836Z,100573.22
2023-03-12T20:23:00.402Z,100568.41
2023-03-12T20:25:27.051Z,100564.53
2023-03-12T20:27:53.667Z,100568.03
2023-03-12T20:30:20.330Z,100569.69
2023-03-12T20:32:46.986Z,100588.03
2023-03-12T20:35:13.590Z,100590.75
2023-03-12T20:37:40.224Z,100586.72
2023-03-12T20:40:08.541Z,100581.31
2023-03-12T20:42:35.108Z,100571.44
2023-03-12T20:45:01.717Z,100564.22
2023-03-12T20:47:28.276Z,100567.75
2023-03-12T20:49:54.834Z,100571.13
2023-03-12T20:52:21.400Z,100571.84
2023-03-12T20:54:47.943Z,100576.41
2023-03-12T20:57:14.585Z,100586.72
2023-03-12T20:59:41.173Z,100587.47
2023-03-12T21:02:07.814Z,100592.56
2023-03-12T21:04:34.405Z,100596.53
2023-03-12T21:07:00.934Z,100598.97
2023-03-12T21:09:27.503Z,100596.84
2023-03-12T21:11:54.023Z,100597.22
2023-03-12T21:14:20.596Z,100596.34
2023-03-12T21:16:47.209Z,100594.44
2023-03-12T21:19:13.955Z,100597.84
2023-03-12T21:21:40.804Z,100595.91
2023-03-12T21:24:07.756Z,100597.50
2023-03-12T21:26:34.348Z,100594.00
2023-03-12T21:29:00.909Z,100593.81
2023-03-12T21:31:27.542Z,100596.06
2023-03-12T21:33:58.189Z,100588.44
2023-03-12T21:36:26.079Z,100588.00
2023-03-12T21:38:52.825Z,100589.31
2023-03-12T21:41:20.745Z,100592.34
2023-03-12T21:43:47.361Z,100584.78
2023-03-12T21:46:19.836Z,100580.94
2023-03-12T21:48:48.032Z,100586.88
2023-03-12T21:51:17.022Z,100577.81
2023-03-12T21:53:43.667Z,100573.22
2023-03-12T21:56:11.059Z,100577.59
2023-03-12T21:58:37.697Z,100580.25
2023-03-12T22:01:11.680Z,100581.88
2023-03-12T22:03:39.494Z,100582.09
2023-03-12T22:06:06.783Z,100577.94
2023-03-12T22:08:34.561Z,100568.25
2023-03-12T22:11:03.537Z,100562.84
2023-03-12T22:13:30.157Z,100565.34
2023-03-12T22:15:59.527Z,100569.69
2023-03-12T22:18:27.296Z,100567.91
2023-03-12T22:20:56.240Z,100583.59
2023-03-12T22:23:23.389Z,100580.81
2023-03-12T22:25:50.253Z,100568.41
2023-03-12T22:28:17.523Z,100573.38
2023-03-12T22:30:44.431Z,100570.38
2023-03-12T22:33:11.309Z,100561.28
2023-03-12T22:35:45.426Z,100555.97
2023-03-12T22:38:12.650Z,100558.47
2023-03-12T22:40:39.820Z,100568.78
2023-03-12T22:43:06.513Z,100567.84
2023-03-12T22:45:33.472Z,100570.59
2023-03-12T22:48:00.320Z,100566.13
2023-03-12T22:50:27.149Z,100569.50
2023-03-12T22:52:53.910Z,100574.59
2023-03-12T22:55:20.452Z,100570.78
2023-03-12T22:57:47.091Z,100575.94
2023-03-12T23:00:16.595Z,100565.34
2023-03-12T23:02:43.205Z,100572.00
2023-03-12T23:05:10.072Z,100578.97
2023-03-12T23:07:37.150Z,100582.97
2023-03-12T23:10:04.585Z,100584.09
2023-03-12T23:12:31.728Z,100582.03
2023-03-12T23:14:58.355Z,100589.78
2023-03-12T23:17:25.136Z,100596.19
2023-03-12T23:19:51.769Z,100598.06
2023-03-12T23:22:18.348Z,100603.47
2023-03-12T23:24:44.905Z,100609.56
2023-03-12T23:27:11.643Z,100613.72
2023-03-12T23:29:38.252Z,100611.31
2023-03-12T23:32:05.395Z,100621.28
2023-03-12T23:34:34.398Z,100620.09
2023-03-12T23:37:01.127Z,100621.13
2023-03-12T23:39:30.366Z,100620.63
2023-03-12T23:41:57.791Z,100625.59
2023-03-12T23:44:24.963Z,100630.59
2023-03-12T23:46:51.572Z,100633.16
2023-03-12T23:49:20.518Z,100628.53
2023-03-12T23:51:47.430Z,100634.69
2023-03-12T23:54:15.374Z,100637.28
2023-03-12T23:56:41.975Z,100636.25
2023-03-12T23:59:10.270Z,100629.00
